Time;durP1;ratioP1;P1;durP2;ratioP2;P2;SDS_P1;SDS_P2;PMS_P1;PMS_P2;Temp;Humidity;BMP_temperature;BMP_pressure;BME280_temperature;BME280_humidity;BME280_pressure;Samples;Min_cycle;Max_cycle;Signal;HPM_P1;HPM_P2
2021/12/16 00:08:23;;;;;;;22.33;14.77;;;3.90;99.90;;;;;;5026495;28;20022;-82
2021/12/16 00:10:59;;;;;;;23.73;14.30;;;3.90;99.90;;;;;;5027927;28;20102;-84
2021/12/16 00:34:45;;;;;;;25.35;15.55;;;3.80;99.90;;;;;;5030838;28;20033;-81
2021/12/16 00:37:11;;;;;;;25.73;15.55;;;3.80;99.90;;;;;;5028606;28;20018;-81
2021/12/16 00:39:37;;;;;;;23.08;15.35;;;3.90;99.90;;;;;;5026075;28;20033;-83
2021/12/16 00:42:26;;;;;;;26.52;16.10;;;3.90;99.90;;;;;;5011501;28;20030;-80
2021/12/16 00:49:53;;;;;;;25.90;16.23;;;3.90;99.90;;;;;;5030262;28;20061;-83
2021/12/16 00:58:06;;;;;;;25.17;16.02;;;3.90;99.90;;;;;;5022370;28;20041;-81
2021/12/16 01:00:32;;;;;;;24.45;15.35;;;3.90;99.90;;;;;;5045267;28;20033;-80
2021/12/16 01:03:14;;;;;;;25.85;16.33;;;3.90;99.90;;;;;;5030086;28;20040;-82
2021/12/16 01:46:45;;;;;;;30.73;18.30;;;3.80;99.90;;;;;;5029434;28;20041;-83
2021/12/16 01:54:49;;;;;;;28.55;16.25;;;3.80;99.90;;;;;;5029329;28;20088;-80
2021/12/16 01:57:44;;;;;;;29.02;17.42;;;3.80;99.90;;;;;;5021086;28;20036;-82
2021/12/16 02:00:15;;;;;;;29.98;17.48;;;3.90;99.90;;;;;;5045222;28;20034;-80
2021/12/16 02:02:51;;;;;;;28.85;17.42;;;3.90;99.90;;;;;;5057200;28;20037;-84
2021/12/16 02:08:16;;;;;;;29.00;17.42;;;3.80;99.90;;;;;;5034853;28;20124;-82
2021/12/16 02:10:47;;;;;;;31.38;17.23;;;3.80;99.90;;;;;;5028269;28;20034;-84
2021/12/16 02:32:46;;;;;;;26.05;15.75;;;3.80;99.90;;;;;;5027350;28;20036;-83
2021/12/16 02:35:35;;;;;;;29.88;17.40;;;3.80;99.90;;;;;;5029183;28;20030;-83
2021/12/16 02:38:04;;;;;;;25.40;15.27;;;3.70;99.90;;;;;;5011623;28;20089;-83
2021/12/16 02:40:33;;;;;;;25.73;15.32;;;3.70;99.90;;;;;;5027626;28;20029;-83
2021/12/16 02:43:21;;;;;;;26.50;15.43;;;3.70;99.90;;;;;;5027911;28;20025;-82
2021/12/16 02:48:38;;;;;;;26.02;14.95;;;3.70;99.90;;;;;;5037343;28;20140;-81
2021/12/16 02:51:14;;;;;;;23.95;14.07;;;3.70;99.90;;;;;;5045394;28;20070;-79
2021/12/16 02:53:45;;;;;;;22.98;12.90;;;3.70;99.90;;;;;;5047015;28;20060;-83
2021/12/16 02:56:11;;;;;;;19.90;12.25;;;3.80;99.90;;;;;;5044778;28;20339;-83
2021/12/16 02:58:41;;;;;;;20.20;11.95;;;3.70;99.90;;;;;;5030582;28;20039;-81
2021/12/16 03:01:15;;;;;;;21.10;12.68;;;3.70;99.90;;;;;;5031677;28;20017;-83
2021/12/16 03:03:41;;;;;;;19.15;11.40;;;3.80;99.90;;;;;;5029594;28;20055;-83
2021/12/16 03:06:10;;;;;;;22.45;13.65;;;3.80;99.90;;;;;;5046790;28;20026;-80
2021/12/16 03:08:36;;;;;;;21.55;13.38;;;3.80;99.90;;;;;;5029553;28;20026;-80
2021/12/16 03:11:25;;;;;;;26.73;14.50;;;3.80;99.90;;;;;;5048907;28;20029;-80
2021/12/16 03:17:43;;;;;;;22.08;13.20;;;3.80;99.90;;;;;;5033655;28;20038;-83
2021/12/16 03:21:58;;;;;;;26.95;15.68;;;3.70;99.90;;;;;;5048877;28;20076;-81
2021/12/16 03:32:12;;;;;;;25.77;14.77;;;3.70;99.90;;;;;;5047588;28;20287;-83
2021/12/16 03:37:18;;;;;;;27.23;15.55;;;3.70;99.90;;;;;;5046424;28;20057;-84
2021/12/16 03:39:52;;;;;;;29.80;16.33;;;3.70;99.90;;;;;;5048402;28;20039;-83
2021/12/16 03:42:33;;;;;;;27.90;16.95;;;3.70;99.90;;;;;;5029700;28;20454;-83
2021/12/16 03:45:07;;;;;;;27.67;16.73;;;3.70;99.90;;;;;;5046899;28;20045;-80
2021/12/16 03:47:42;;;;;;;32.13;17.58;;;3.70;99.90;;;;;;5047321;28;20021;-82
2021/12/16 03:50:17;;;;;;;31.83;18.73;;;3.70;99.90;;;;;;5040521;28;20021;-82
2021/12/16 03:52:48;;;;;;;31.38;18.52;;;3.70;99.90;;;;;;5031712;28;20025;-83
2021/12/16 03:55:16;;;;;;;38.28;19.95;;;3.70;99.90;;;;;;5026685;28;20026;-85
2021/12/16 03:57:43;;;;;;;36.50;19.80;;;3.70;99.90;;;;;;5046906;28;20018;-83
2021/12/16 04:00:14;;;;;;;36.42;20.02;;;3.70;99.90;;;;;;5047503;28;20091;-82
2021/12/16 04:02:41;;;;;;;34.13;19.60;;;3.60;99.90;;;;;;5046026;28;20394;-82
2021/12/16 04:05:09;;;;;;;36.08;20.42;;;3.70;99.90;;;;;;5043895;28;20087;-80
2021/12/16 04:07:39;;;;;;;35.55;20.48;;;3.60;99.90;;;;;;5030470;28;20033;-82
2021/12/16 04:10:11;;;;;;;35.05;21.15;;;3.60;99.90;;;;;;5047003;28;20029;-82
2021/12/16 04:12:37;;;;;;;29.83;18.05;;;3.60;99.90;;;;;;5044515;28;20034;-83
2021/12/16 04:15:06;;;;;;;28.75;17.15;;;3.60;99.90;;;;;;5045653;28;20072;-81
2021/12/16 04:17:33;;;;;;;26.80;16.20;;;3.50;99.90;;;;;;5049858;28;20036;-81
2021/12/16 04:20:06;;;;;;;29.15;16.63;;;3.50;99.90;;;;;;5044418;28;20035;-81
2021/12/16 04:22:42;;;;;;;27.88;16.55;;;3.50;99.90;;;;;;5031981;28;20060;-82
2021/12/16 04:25:12;;;;;;;25.88;17.63;;;3.40;99.90;;;;;;5030581;28;20083;-81
2021/12/16 04:27:43;;;;;;;25.45;16.48;;;3.40;99.90;;;;;;5045643;28;20100;-80
2021/12/16 04:30:15;;;;;;;28.95;16.92;;;3.30;99.90;;;;;;5018095;28;20037;-81
2021/12/16 04:32:44;;;;;;;26.33;15.95;;;3.30;99.90;;;;;;5040874;28;20025;-82
2021/12/16 04:35:10;;;;;;;30.17;18.05;;;3.30;99.90;;;;;;5029231;28;20033;-80
2021/12/16 04:37:36;;;;;;;25.55;15.95;;;3.30;99.90;;;;;;5027144;28;20469;-81
2021/12/16 04:40:09;;;;;;;27.75;16.92;;;3.30;99.90;;;;;;5045006;28;20104;-81
2021/12/16 04:42:37;;;;;;;28.02;17.42;;;3.30;99.90;;;;;;5029270;28;20022;-81
2021/12/16 04:45:08;;;;;;;28.92;16.92;;;3.30;99.90;;;;;;5046138;28;20041;-83
2021/12/16 04:47:35;;;;;;;25.88;15.60;;;3.30;99.90;;;;;;5027748;28;20053;-83
2021/12/16 04:50:01;;;;;;;26.48;15.10;;;3.30;99.90;;;;;;5045634;28;20072;-83
2021/12/16 04:52:27;;;;;;;22.85;14.77;;;3.30;99.90;;;;;;5046097;28;20037;-82
2021/12/16 04:54:53;;;;;;;26.38;16.02;;;3.30;99.90;;;;;;5011348;28;20020;-82
2021/12/16 04:57:19;;;;;;;24.88;15.20;;;3.30;99.90;;;;;;5032303;28;20010;-81
2021/12/16 04:59:46;;;;;;;25.45;14.35;;;3.30;99.90;;;;;;5026699;28;20029;-83
2021/12/16 05:02:17;;;;;;;22.80;13.70;;;3.30;99.90;;;;;;5032991;28;20024;-83
2021/12/16 05:04:44;;;;;;;19.83;13.13;;;3.30;99.90;;;;;;5029661;28;20109;-82
2021/12/16 05:07:11;;;;;;;20.15;13.18;;;3.40;99.90;;;;;;5015475;28;20034;-82
2021/12/16 05:12:18;;;;;;;20.60;12.18;;;3.40;99.90;;;;;;5026137;28;20039;-83
2021/12/16 05:14:50;;;;;;;20.10;11.40;;;3.40;99.90;;;;;;5023000;28;20055;-83
2021/12/16 05:17:31;;;;;;;17.75;10.98;;;3.40;99.90;;;;;;5027258;28;20041;-83
2021/12/16 05:20:00;;;;;;;13.85;8.48;;;3.40;99.90;;;;;;5027261;28;20022;-82
2021/12/16 05:25:22;;;;;;;15.20;8.52;;;3.30;99.90;;;;;;5026341;28;20163;-83
2021/12/16 05:27:48;;;;;;;16.15;8.60;;;3.30;99.90;;;;;;5028867;28;20074;-82
2021/12/16 05:30:14;;;;;;;13.00;8.25;;;3.30;99.90;;;;;;5011869;28;20022;-82
2021/12/16 05:32:45;;;;;;;14.00;8.68;;;3.30;99.90;;;;;;5024337;28;20021;-82
2021/12/16 05:35:13;;;;;;;14.60;8.63;;;3.30;99.90;;;;;;5025961;28;20022;-83
2021/12/16 05:37:41;;;;;;;13.50;7.93;;;3.40;99.90;;;;;;5013916;28;20026;-82
2021/12/16 05:40:08;;;;;;;12.77;8.27;;;3.40;99.90;;;;;;5033709;28;20048;-83
2021/12/16 05:42:37;;;;;;;13.68;8.13;;;3.50;99.90;;;;;;5036950;28;20021;-83
2021/12/16 05:45:05;;;;;;;12.02;7.35;;;3.50;99.90;;;;;;5035666;28;20034;-83
2021/12/16 05:47:31;;;;;;;12.35;7.55;;;3.50;99.90;;;;;;5035121;28;20105;-83
2021/12/16 05:49:58;;;;;;;12.77;7.95;;;3.50;99.90;;;;;;5053082;28;20029;-82
2021/12/16 05:52:25;;;;;;;13.30;7.97;;;3.40;99.90;;;;;;5014463;28;20034;-83
2021/12/16 05:54:51;;;;;;;12.25;7.65;;;3.40;99.90;;;;;;5030050;28;20023;-82
2021/12/16 05:57:16;;;;;;;11.20;7.30;;;3.40;99.90;;;;;;5030721;28;20045;-83
2021/12/16 05:59:43;;;;;;;12.02;7.72;;;3.40;99.90;;;;;;5053642;28;20060;-82
2021/12/16 06:02:09;;;;;;;15.82;8.77;;;3.40;99.90;;;;;;5035951;28;20014;-83
2021/12/16 06:04:38;;;;;;;12.95;7.85;;;3.40;99.90;;;;;;5047891;28;20028;-83
2021/12/16 06:07:05;;;;;;;12.15;8.02;;;3.40;99.90;;;;;;5036788;28;20090;-83
2021/12/16 06:09:31;;;;;;;14.00;8.27;;;3.50;99.90;;;;;;5037672;28;20056;-81
2021/12/16 06:11:57;;;;;;;13.05;7.93;;;3.40;99.90;;;;;;5038351;28;20043;-81
2021/12/16 06:14:38;;;;;;;13.75;8.60;;;3.50;99.90;;;;;;5057618;28;20028;-82
2021/12/16 06:28:07;;;;;;;16.75;9.57;;;3.40;99.90;;;;;;5069849;28;20062;-83
2021/12/16 06:30:40;;;;;;;18.02;10.70;;;3.40;99.90;;;;;;5050799;28;20029;-83
2021/12/16 06:33:09;;;;;;;16.05;9.65;;;3.50;99.90;;;;;;5053408;28;20031;-83
2021/12/16 06:35:35;;;;;;;16.85;10.68;;;3.50;99.90;;;;;;5079342;28;20056;-82
2021/12/16 06:38:02;;;;;;;17.20;10.45;;;3.40;99.90;;;;;;5079131;28;20088;-82
2021/12/16 06:40:29;;;;;;;14.68;8.95;;;3.50;99.90;;;;;;5078828;28;20059;-83
2021/12/16 06:42:57;;;;;;;18.00;10.45;;;3.50;99.90;;;;;;5049465;28;20277;-83
2021/12/16 06:45:30;;;;;;;16.48;11.00;;;3.50;99.90;;;;;;5050984;28;20041;-83
2021/12/16 06:48:04;;;;;;;22.50;11.88;;;3.50;99.90;;;;;;5034923;28;20026;-83
2021/12/16 06:53:01;;;;;;;20.25;11.95;;;3.50;99.90;;;;;;5056162;28;20014;-83
2021/12/16 06:55:38;;;;;;;19.23;11.50;;;3.50;99.90;;;;;;5038438;28;20030;-81
2021/12/16 07:00:59;;;;;;;18.50;11.40;;;3.50;99.90;;;;;;5054185;28;20055;-81
2021/12/16 07:03:29;;;;;;;19.13;10.48;;;3.50;99.90;;;;;;5040818;28;20026;-80
2021/12/16 07:05:56;;;;;;;18.48;10.60;;;3.50;99.90;;;;;;5041204;28;20029;-80
2021/12/16 07:08:24;;;;;;;16.90;9.80;;;3.60;99.90;;;;;;5040970;28;20017;-81
2021/12/16 07:10:54;;;;;;;17.50;10.52;;;3.60;99.90;;;;;;5040393;28;20029;-81
2021/12/16 07:13:29;;;;;;;17.35;10.25;;;3.60;99.90;;;;;;5040845;28;20014;-81
2021/12/16 07:15:57;;;;;;;16.75;9.20;;;3.60;99.90;;;;;;5040538;28;20040;-82
2021/12/16 07:18:23;;;;;;;13.73;8.25;;;3.70;99.90;;;;;;5033412;28;20029;-78
2021/12/16 07:20:49;;;;;;;11.75;7.45;;;3.80;99.90;;;;;;5041470;28;20022;-82
2021/12/16 07:23:15;;;;;;;7.97;5.57;;;3.80;99.90;;;;;;5016568;28;20029;-81
2021/12/16 07:25:41;;;;;;;7.40;5.22;;;3.90;99.90;;;;;;5034345;28;20018;-81
2021/12/16 07:28:07;;;;;;;8.43;5.30;;;4.00;99.90;;;;;;5036945;28;20085;-82
2021/12/16 07:30:39;;;;;;;10.02;5.72;;;4.10;99.90;;;;;;5011814;28;20026;-81
2021/12/16 07:33:06;;;;;;;8.03;5.27;;;4.20;99.90;;;;;;5030530;28;20026;-81
2021/12/16 07:35:34;;;;;;;7.75;5.32;;;4.30;99.90;;;;;;5029859;28;20269;-81
2021/12/16 07:38:00;;;;;;;9.40;5.60;;;4.40;99.90;;;;;;5015022;28;20108;-80
2021/12/16 07:40:29;;;;;;;9.43;5.65;;;4.40;99.90;;;;;;5032434;28;20034;-80
2021/12/16 07:43:11;;;;;;;7.68;4.78;;;4.50;99.90;;;;;;5032081;28;20018;-81
2021/12/16 07:45:48;;;;;;;7.55;5.00;;;4.50;99.90;;;;;;5032454;28;20017;-79
2021/12/16 07:48:17;;;;;;;10.18;6.10;;;4.50;99.90;;;;;;5030976;28;20030;-81
2021/12/16 07:50:46;;;;;;;9.48;6.55;;;4.50;99.90;;;;;;5048245;28;20053;-81
2021/12/16 07:53:12;;;;;;;6.60;4.47;;;4.60;99.90;;;;;;5031746;28;20017;-80
2021/12/16 07:55:41;;;;;;;9.45;5.13;;;4.60;99.90;;;;;;5038445;28;20018;-81
2021/12/16 07:58:07;;;;;;;6.82;4.60;;;4.70;99.90;;;;;;5029926;28;20029;-81
2021/12/16 08:00:34;;;;;;;4.93;3.50;;;4.80;99.90;;;;;;5038512;28;20017;-81
2021/12/16 08:03:04;;;;;;;6.68;4.28;;;4.80;99.90;;;;;;5038776;28;20432;-81
2021/12/16 08:05:33;;;;;;;4.07;2.92;;;4.90;99.90;;;;;;5020035;28;20065;-81
2021/12/16 08:07:59;;;;;;;4.97;3.42;;;4.90;99.90;;;;;;5038245;28;20021;-80
2021/12/16 08:10:25;;;;;;;5.18;3.63;;;4.90;99.90;;;;;;5040915;28;20029;-79
2021/12/16 08:12:52;;;;;;;4.13;2.95;;;5.00;99.90;;;;;;5040197;28;20025;-80
2021/12/16 08:15:19;;;;;;;6.35;3.63;;;5.00;99.90;;;;;;5028098;28;20082;-80
2021/12/16 08:17:45;;;;;;;5.43;3.83;;;5.10;99.90;;;;;;5049870;28;20018;-81
2021/12/16 08:20:16;;;;;;;7.75;4.85;;;5.10;99.90;;;;;;5034290;28;20028;-81
2021/12/16 08:22:44;;;;;;;7.30;4.95;;;5.10;99.90;;;;;;5031631;28;20093;-81
2021/12/16 08:25:11;;;;;;;6.20;4.15;;;5.10;99.90;;;;;;5051034;28;20025;-81
2021/12/16 08:27:39;;;;;;;8.02;4.47;;;5.00;99.90;;;;;;5050510;28;20045;-81
2021/12/16 08:30:11;;;;;;;4.82;3.80;;;5.10;99.90;;;;;;5036260;28;20024;-81
2021/12/16 08:32:38;;;;;;;7.35;4.28;;;5.00;99.90;;;;;;5055092;28;20029;-82
2021/12/16 08:35:06;;;;;;;7.65;4.95;;;5.10;99.90;;;;;;5050951;28;20061;-81
2021/12/16 08:37:32;;;;;;;7.05;4.68;;;5.10;99.90;;;;;;5034533;28;20014;-84
2021/12/16 08:39:58;;;;;;;6.97;4.63;;;5.20;99.90;;;;;;5056458;28;20068;-82
2021/12/16 08:42:24;;;;;;;8.48;4.97;;;5.30;99.90;;;;;;5035747;28;20036;-82
2021/12/16 08:44:50;;;;;;;7.43;4.70;;;5.40;99.90;;;;;;5050389;28;20029;-84
2021/12/16 08:47:18;;;;;;;8.02;5.10;;;5.50;99.90;;;;;;5052266;28;20108;-82
2021/12/16 08:49:45;;;;;;;6.15;4.40;;;5.60;99.90;;;;;;5033165;28;20032;-82
2021/12/16 08:52:18;;;;;;;6.35;4.65;;;5.70;99.90;;;;;;5033827;28;20033;-83
2021/12/16 08:54:46;;;;;;;9.18;5.53;;;5.70;99.90;;;;;;5051203;28;20029;-82
2021/12/16 08:57:12;;;;;;;6.65;5.13;;;5.90;99.90;;;;;;5029477;28;20211;-83
2021/12/16 08:59:38;;;;;;;9.40;6.13;;;6.00;99.90;;;;;;5055007;28;20095;-82
2021/12/16 09:02:07;;;;;;;8.73;5.30;;;6.20;99.80;;;;;;5032763;28;20029;-83
2021/12/16 09:04:56;;;;;;;9.32;5.88;;;6.20;99.60;;;;;;5025698;28;20125;-83
2021/12/16 09:07:31;;;;;;;8.27;5.25;;;6.20;99.30;;;;;;5025382;28;20038;-82
2021/12/16 09:10:33;;;;;;;7.90;5.30;;;6.10;99.30;;;;;;5026148;28;20032;-84
2021/12/16 09:13:21;;;;;;;8.52;5.43;;;6.00;99.50;;;;;;4986350;28;20044;-82
2021/12/16 09:16:26;;;;;;;7.90;4.97;;;5.90;99.50;;;;;;4993273;28;20061;-83
2021/12/16 09:21:56;;;;;;;9.50;5.13;;;6.10;99.60;;;;;;4984408;28;20035;-84
2021/12/16 09:24:22;;;;;;;7.32;4.90;;;6.20;99.10;;;;;;5015855;28;20053;-83
2021/12/16 09:30:13;;;;;;;12.23;4.47;;;6.10;98.80;;;;;;5038019;28;20037;-82
2021/12/16 09:32:42;;;;;;;5.80;4.05;;;6.10;99.30;;;;;;5040001;28;20024;-82
2021/12/16 09:35:10;;;;;;;7.03;4.22;;;6.30;99.30;;;;;;5046762;28;20026;-82
2021/12/16 09:37:37;;;;;;;10.02;5.13;;;6.40;99.30;;;;;;5031108;28;20021;-81
2021/12/16 09:40:13;;;;;;;6.88;4.55;;;6.40;98.50;;;;;;5029445;28;20022;-82
2021/12/16 09:42:39;;;;;;;5.43;4.30;;;6.30;98.20;;;;;;5027393;28;20127;-82
2021/12/16 09:45:12;;;;;;;5.22;4.07;;;6.30;98.30;;;;;;5030443;28;20057;-82
2021/12/16 09:47:39;;;;;;;5.50;4.32;;;6.30;98.40;;;;;;5035629;28;20025;-82
2021/12/16 09:50:08;;;;;;;7.85;4.80;;;6.30;98.20;;;;;;5029905;28;20026;-82
2021/12/16 09:52:34;;;;;;;5.60;4.22;;;6.20;98.50;;;;;;5047588;28;20031;-83
2021/12/16 09:55:00;;;;;;;4.15;3.70;;;6.20;98.70;;;;;;5045672;28;20042;-83
2021/12/16 09:57:28;;;;;;;5.78;3.75;;;6.20;98.70;;;;;;5041640;28;20105;-83
2021/12/16 09:59:55;;;;;;;4.32;3.30;;;6.30;98.80;;;;;;5028692;28;20048;-82
2021/12/16 10:02:21;;;;;;;5.97;3.55;;;6.40;98.80;;;;;;5032143;28;20398;-82
2021/12/16 10:04:48;;;;;;;4.45;3.33;;;6.50;98.50;;;;;;5032038;28;20062;-82
2021/12/16 10:07:21;;;;;;;6.90;5.13;;;6.50;98.40;;;;;;5048517;28;20081;-81
2021/12/16 10:09:50;;;;;;;4.32;3.20;;;6.50;98.30;;;;;;5035326;28;20021;-82
2021/12/16 10:12:22;;;;;;;4.20;3.00;;;6.40;98.10;;;;;;5050742;28;20021;-81
2021/12/16 10:17:28;;;;;;;4.20;3.08;;;6.30;98.40;;;;;;5052716;28;20097;-83
2021/12/16 10:19:56;;;;;;;4.40;2.95;;;6.20;98.50;;;;;;5031823;28;20022;-83
2021/12/16 10:22:33;;;;;;;3.95;3.22;;;6.20;98.70;;;;;;5048692;28;20041;-82
2021/12/16 10:25:17;;;;;;;3.17;2.80;;;6.30;98.80;;;;;;5035503;28;20029;-85
2021/12/16 10:27:58;;;;;;;3.47;2.75;;;6.40;98.60;;;;;;5024160;28;20040;-87
2021/12/16 10:30:49;;;;;;;3.45;3.03;;;6.70;98.40;;;;;;5048910;28;20032;-86
2021/12/16 10:33:27;;;;;;;5.70;4.07;;;6.90;97.80;;;;;;5046722;28;20086;-86
2021/12/16 10:36:18;;;;;;;6.25;4.38;;;7.30;96.90;;;;;;5026196;28;20048;-88
2021/12/16 10:38:55;;;;;;;3.65;3.10;;;7.80;96.10;;;;;;5027334;28;20428;-89
2021/12/16 10:41:43;;;;;;;4.50;3.45;;;8.10;95.60;;;;;;5026386;28;20033;-87
2021/12/16 10:44:17;;;;;;;8.27;5.40;;;8.20;95.20;;;;;;5027026;28;20055;-90
2021/12/16 10:47:05;;;;;;;7.88;4.68;;;8.10;94.40;;;;;;5043578;28;20497;-89
2021/12/16 10:49:37;;;;;;;6.53;4.95;;;7.80;94.40;;;;;;5044151;28;20056;-88
2021/12/16 10:52:10;;;;;;;6.43;5.32;;;7.40;94.70;;;;;;5054754;28;20089;-89
2021/12/16 10:54:39;;;;;;;9.10;4.82;;;7.10;95.20;;;;;;5059650;28;20038;-90
2021/12/16 10:57:12;;;;;;;6.32;5.18;;;6.90;96.00;;;;;;5041298;28;20037;-89
2021/12/16 10:59:51;;;;;;;9.07;4.80;;;6.80;96.40;;;;;;5044352;28;20010;-86
2021/12/16 11:02:27;;;;;;;7.47;4.75;;;6.70;96.50;;;;;;5026308;28;20024;-87
2021/12/16 11:05:05;;;;;;;10.35;4.63;;;6.60;97.10;;;;;;5029655;28;20030;-86
2021/12/16 11:07:34;;;;;;;6.05;4.20;;;6.50;97.60;;;;;;5031331;28;20034;-86
2021/12/16 11:10:20;;;;;;;5.95;4.63;;;6.40;96.80;;;;;;5033329;28;20033;-87
2021/12/16 11:12:51;;;;;;;8.63;4.85;;;6.40;97.30;;;;;;5057844;28;20021;-87
2021/12/16 11:15:29;;;;;;;6.50;4.70;;;6.20;97.40;;;;;;5039694;28;20045;-86
2021/12/16 11:18:08;;;;;;;5.55;4.20;;;6.20;97.60;;;;;;5039307;28;20010;-87
2021/12/16 11:20:48;;;;;;;7.60;4.43;;;6.20;98.00;;;;;;5039916;28;20018;-85
2021/12/16 11:23:33;;;;;;;6.90;4.78;;;6.20;98.50;;;;;;5024348;28;20048;-86
2021/12/16 11:26:09;;;;;;;4.80;3.65;;;6.30;98.30;;;;;;5029590;28;20025;-86
2021/12/16 11:28:43;;;;;;;7.47;4.30;;;6.40;98.20;;;;;;5029236;28;20026;-86
2021/12/16 11:31:14;;;;;;;9.07;6.13;;;6.60;98.20;;;;;;5052499;28;20022;-85
2021/12/16 11:33:48;;;;;;;6.45;4.07;;;6.70;97.40;;;;;;5039488;28;20036;-86
2021/12/16 11:36:23;;;;;;;5.80;4.22;;;6.70;97.40;;;;;;5036953;28;20017;-87
2021/12/16 11:39:04;;;;;;;6.40;4.60;;;6.60;97.90;;;;;;5054786;28;20045;-85
2021/12/16 11:41:35;;;;;;;7.85;5.05;;;6.60;98.00;;;;;;5038569;28;20029;-86
2021/12/16 11:44:01;;;;;;;8.60;5.45;;;6.60;97.90;;;;;;5038002;28;20053;-86
2021/12/16 11:46:37;;;;;;;12.55;6.22;;;6.70;97.30;;;;;;5037467;28;20040;-86
2021/12/16 11:49:14;;;;;;;6.10;4.45;;;6.70;97.10;;;;;;5038507;28;20074;-86
2021/12/16 11:52:14;;;;;;;6.38;5.10;;;6.60;97.80;;;;;;5064609;22;20063;-85
2021/12/16 11:55:21;;;;;;;6.55;5.38;;;6.60;98.10;;;;;;5015425;28;20400;-84
2021/12/16 11:58:09;;;;;;;8.32;5.55;;;6.70;97.50;;;;;;5033514;28;20107;-85
2021/12/16 12:00:44;;;;;;;6.43;5.00;;;6.80;97.40;;;;;;5015817;28;20101;-86
2021/12/16 12:03:16;;;;;;;8.70;5.03;;;6.80;96.30;;;;;;5032732;28;20009;-86
2021/12/16 12:05:53;;;;;;;7.07;4.93;;;6.90;96.70;;;;;;5035283;28;20017;-87
2021/12/16 12:08:26;;;;;;;7.10;4.82;;;6.80;96.80;;;;;;5047512;28;20279;-86
2021/12/16 12:11:06;;;;;;;6.55;4.47;;;6.70;96.80;;;;;;5034486;28;20006;-85
2021/12/16 12:13:37;;;;;;;6.90;4.20;;;6.60;97.00;;;;;;5044811;28;20021;-86
2021/12/16 12:16:26;;;;;;;6.68;4.82;;;6.70;97.30;;;;;;5033798;28;20091;-86
2021/12/16 12:19:39;;;;;;;7.22;4.75;;;6.80;96.80;;;;;;5049515;28;20016;-86
2021/12/16 12:22:20;;;;;;;6.20;4.50;;;6.80;96.30;;;;;;5034655;28;20033;-86
2021/12/16 12:25:09;;;;;;;5.05;3.30;;;6.80;96.30;;;;;;5035885;28;20026;-86
2021/12/16 12:27:41;;;;;;;7.45;4.53;;;6.70;96.70;;;;;;5028548;28;20037;-88
2021/12/16 12:30:11;;;;;;;6.73;4.27;;;6.80;96.60;;;;;;5034284;28;20017;-89
2021/12/16 12:32:38;;;;;;;5.32;3.53;;;6.80;96.70;;;;;;5052898;28;20030;-87
2021/12/16 12:35:25;;;;;;;4.90;3.78;;;6.80;96.80;;;;;;5050699;28;20037;-85
2021/12/16 12:37:55;;;;;;;5.88;3.75;;;6.80;96.60;;;;;;5031187;28;20037;-87
2021/12/16 12:40:37;;;;;;;4.82;3.60;;;6.70;96.70;;;;;;5033412;28;20017;-86
2021/12/16 12:43:18;;;;;;;4.28;3.72;;;6.70;96.80;;;;;;5016588;28;20032;-87
2021/12/16 12:45:44;;;;;;;4.45;2.90;;;6.80;96.90;;;;;;5032006;28;20047;-87
2021/12/16 12:48:24;;;;;;;6.22;4.20;;;6.80;96.90;;;;;;5049617;28;20030;-86
2021/12/16 12:50:59;;;;;;;5.03;3.47;;;6.90;96.40;;;;;;5047208;28;20014;-86
2021/12/16 12:53:50;;;;;;;6.03;3.70;;;6.90;96.40;;;;;;5030472;28;20418;-87
2021/12/16 12:56:28;;;;;;;5.82;3.85;;;7.00;96.40;;;;;;5035204;28;20025;-87
2021/12/16 12:59:11;;;;;;;4.97;3.70;;;7.00;96.30;;;;;;5048311;28;20022;-87
2021/12/16 13:01:55;;;;;;;4.22;3.05;;;7.10;96.20;;;;;;5013593;28;20022;-85
2021/12/16 13:04:32;;;;;;;2.92;2.50;;;7.10;95.90;;;;;;5024095;28;20045;-86
2021/12/16 13:07:06;;;;;;;3.97;2.58;;;7.20;95.50;;;;;;5029956;28;20045;-85
2021/12/16 13:09:40;;;;;;;2.30;2.10;;;7.20;95.40;;;;;;5051818;28;20037;-85
2021/12/16 13:12:50;;;;;;;2.70;2.13;;;7.20;95.20;;;;;;5046066;28;20470;-87
2021/12/16 13:15:45;;;;;;;2.58;2.13;;;7.10;95.00;;;;;;5001473;28;20044;-85
2021/12/16 13:32:46;;;;;;;2.78;2.30;;;7.10;94.60;;;;;;5030467;28;20033;-87
2021/12/16 13:35:34;;;;;;;3.35;2.53;;;7.10;94.60;;;;;;5047814;28;20022;-87
2021/12/16 13:38:07;;;;;;;2.33;1.70;;;7.10;94.50;;;;;;5048095;28;20034;-87
2021/12/16 13:40:37;;;;;;;2.40;1.88;;;7.10;94.60;;;;;;5029199;28;20064;-87
2021/12/16 13:43:24;;;;;;;1.85;1.63;;;7.10;94.60;;;;;;5038328;28;20001;-85
2021/12/16 13:46:30;;;;;;;2.67;1.70;;;7.20;94.50;;;;;;5037257;28;20056;-87
2021/12/16 14:03:45;;;;;;;4.07;2.80;;;6.90;93.70;;;;;;5035139;28;20028;-85
2021/12/16 14:08:57;;;;;;;5.15;3.50;;;6.70;94.50;;;;;;5018591;28;20053;-86
2021/12/16 14:25:39;;;;;;;6.32;4.32;;;6.00;97.60;;;;;;5022899;28;20037;-89
2021/12/16 14:45:16;;;;;;;4.82;3.38;;;5.60;99.40;;;;;;4999433;28;20057;-86
2021/12/16 14:50:47;;;;;;;6.72;4.28;;;5.60;99.90;;;;;;5014159;28;20026;-85
2021/12/16 14:53:18;;;;;;;7.15;4.75;;;5.60;99.90;;;;;;5022308;28;20088;-86
2021/12/16 14:55:46;;;;;;;7.03;4.20;;;5.60;99.90;;;;;;5023861;28;20022;-86
2021/12/16 14:58:12;;;;;;;9.43;4.70;;;5.60;99.90;;;;;;5021512;28;20308;-86
2021/12/16 15:00:52;;;;;;;5.80;4.07;;;5.70;99.90;;;;;;5010592;28;20029;-86
2021/12/16 15:03:28;;;;;;;7.35;4.07;;;5.70;99.90;;;;;;5029007;28;20014;-85
2021/12/16 15:06:00;;;;;;;8.23;5.55;;;5.70;99.90;;;;;;5013240;28;20084;-86
2021/12/16 15:08:42;;;;;;;8.48;6.20;;;5.70;99.90;;;;;;5023252;28;20032;-86
2021/12/16 15:11:11;;;;;;;9.27;6.20;;;5.60;99.90;;;;;;5051545;28;20394;-86
2021/12/16 15:38:10;;;;;;;6.88;5.00;;;5.10;99.90;;;;;;5023119;28;20018;-88
2021/12/16 15:40:40;;;;;;;8.90;5.13;;;5.10;99.90;;;;;;5025582;28;20026;-87
2021/12/16 15:43:12;;;;;;;8.93;5.75;;;5.10;99.90;;;;;;5024671;28;20030;-85
2021/12/16 15:45:43;;;;;;;8.25;5.80;;;5.10;99.90;;;;;;5005831;28;20022;-86
2021/12/16 15:48:17;;;;;;;9.10;5.30;;;5.00;99.90;;;;;;5008868;28;20057;-85
2021/12/16 15:51:05;;;;;;;8.27;5.88;;;4.90;99.90;;;;;;5008330;28;20027;-85
2021/12/16 15:53:34;;;;;;;13.43;6.32;;;4.90;99.90;;;;;;5012296;28;20037;-84
2021/12/16 15:56:06;;;;;;;11.07;6.97;;;4.80;99.90;;;;;;5029274;28;20037;-84
2021/12/16 15:58:36;;;;;;;8.15;5.90;;;4.80;99.90;;;;;;5016069;28;20110;-85
2021/12/16 16:01:17;;;;;;;9.18;5.95;;;4.70;99.90;;;;;;5025139;28;20014;-85
2021/12/16 16:03:44;;;;;;;8.05;5.68;;;4.60;99.90;;;;;;5022025;28;20041;-85
2021/12/16 16:06:12;;;;;;;9.68;6.25;;;4.60;99.90;;;;;;5039771;28;20058;-85
2021/12/16 16:08:54;;;;;;;9.43;6.10;;;4.60;99.90;;;;;;5012555;28;20027;-85
2021/12/16 16:11:30;;;;;;;11.52;7.18;;;4.50;99.90;;;;;;5011993;28;20033;-85
2021/12/16 16:14:02;;;;;;;9.52;6.30;;;4.50;99.90;;;;;;5012357;28;20026;-85
2021/12/16 16:16:36;;;;;;;12.35;7.35;;;4.50;99.90;;;;;;5011083;28;20053;-85
2021/12/16 16:19:04;;;;;;;9.88;6.68;;;4.50;99.90;;;;;;5015579;28;20069;-85
2021/12/16 16:21:39;;;;;;;8.90;5.88;;;4.40;99.90;;;;;;5026750;28;20046;-85
2021/12/16 16:24:12;;;;;;;8.77;6.18;;;4.40;99.90;;;;;;5024551;28;20030;-85
2021/12/16 16:26:53;;;;;;;11.77;7.18;;;4.40;99.90;;;;;;5015344;28;20022;-85
2021/12/16 16:29:22;;;;;;;10.90;6.75;;;4.40;99.90;;;;;;5020370;28;20036;-86
2021/12/16 16:31:49;;;;;;;9.73;6.50;;;4.40;99.90;;;;;;5029345;28;20076;-86
2021/12/16 16:34:20;;;;;;;13.43;8.05;;;4.50;99.90;;;;;;5017354;28;20030;-85
2021/12/16 16:36:50;;;;;;;12.18;7.50;;;4.50;99.90;;;;;;5011380;28;20041;-86
2021/12/16 16:39:19;;;;;;;15.30;8.23;;;4.50;99.90;;;;;;5007368;28;20114;-85
2021/12/16 16:42:00;;;;;;;11.45;7.57;;;4.50;99.90;;;;;;5002861;28;20463;-86
2021/12/16 16:44:28;;;;;;;11.70;7.97;;;4.60;99.90;;;;;;5004241;28;20058;-85
2021/12/16 16:47:03;;;;;;;11.25;7.82;;;4.50;99.90;;;;;;5002976;28;20101;-85
2021/12/16 16:49:42;;;;;;;11.98;8.07;;;4.50;99.90;;;;;;5018585;28;20034;-86
2021/12/16 16:52:12;;;;;;;14.98;7.72;;;4.50;99.90;;;;;;5003938;28;20570;-85
2021/12/16 16:54:42;;;;;;;14.23;8.20;;;4.50;99.90;;;;;;5007312;28;20037;-86
2021/12/16 16:57:20;;;;;;;11.27;8.20;;;4.50;99.90;;;;;;5013171;28;20157;-85
2021/12/16 16:59:59;;;;;;;11.20;7.75;;;4.50;99.90;;;;;;5015730;28;20018;-86
2021/12/16 17:02:33;;;;;;;14.20;8.27;;;4.50;99.90;;;;;;5044447;28;20022;-84
2021/12/16 17:05:15;;;;;;;13.52;8.25;;;4.50;99.90;;;;;;5027234;28;20021;-86
2021/12/16 17:08:18;;;;;;;13.32;8.77;;;4.40;99.90;;;;;;5010775;28;20038;-86
2021/12/16 17:10:54;;;;;;;14.68;9.60;;;4.30;99.90;;;;;;5031553;23;20030;-81
2021/12/16 17:13:45;;;;;;;12.13;8.32;;;4.20;99.90;;;;;;5016604;28;20045;-81
2021/12/16 17:18:54;;;;;;;15.00;9.65;;;4.10;99.90;;;;;;5010638;28;20030;-80
2021/12/16 17:21:28;;;;;;;14.60;9.82;;;4.00;99.90;;;;;;5011514;28;20058;-81
2021/12/16 17:24:03;;;;;;;11.50;8.50;;;4.00;99.90;;;;;;5003568;28;20433;-81
2021/12/16 17:26:31;;;;;;;14.23;9.40;;;4.00;99.90;;;;;;5002227;28;20073;-82
2021/12/16 17:29:09;;;;;;;13.80;9.88;;;4.00;99.90;;;;;;5010287;28;20061;-82
2021/12/16 17:31:46;;;;;;;15.13;10.77;;;4.00;99.90;;;;;;5002071;28;20105;-82